Address 0xff98552de457e54dbb142d51bad94cead75d984e 6

 
Txn Hash Method
Block
From
To
Value [Txn Fee]
0xa69176865f985ebef2845c8427c19f2e58a29300a1ca2b3b967d81822d1366b5Transfer126764472021-11-15 19:02:4821 days 23 hrs agoRevive Project: DeployerOUT0x3651dc6226a7bc7901d7d4f36ecaa10a88ba76ab0.09456662 BNB0.000105
0xdf686a527fbeed213fd9236f3c6a604b4084942aa655c5b464a645c3b817a8baTransfer126691612021-11-15 12:19:4422 days 5 hrs agoRevive Project: DeployerOUT0x3651dc6226a7bc7901d7d4f36ecaa10a88ba76ab0.05 BNB0.000105
0x88ea6b21746293173c96fd716613778427d0cfe07a352b5cc563e08be48feeb1Transfer Ownersh...126691552021-11-15 12:19:2322 days 5 hrs agoRevive Project: DeployerOUT 0xa37818fb9cbdb2a1d05d48c0b03167c9c44da3c20 BNB0.00015645
0x63383f9b20c9b021e3c5eba78af6edd7864998fe33fdd060194b179b3faa96f2Transfer126550052021-11-14 23:55:2322 days 18 hrs ago0x3651dc6226a7bc7901d7d4f36ecaa10a88ba76ab IN Revive Project: Deployer0.14493307 BNB0.000105
0xccb24a8cf13abdc0e1cbd41f85ff731dc254ed19e006c3d4508aa5fa11f95071Transfer125664902021-11-11 19:49:3925 days 22 hrs agoRevive Project: DeployerOUT0x989a076a17796fd4f68572e00084667680371ce70.19877273 BNB0.000105
0x2b1abf96c864df00077fd23ba239c4c12bdfe9716cd88b33b47a76cde75c28a7Approve125007132021-11-09 11:03:4928 days 7 hrs agoRevive Project: DeployerOUT 0xf6565a97dc832d93dc83b75ee9aa5c7e8ecb0f9d0 BNB0.000220645
0x2549e6031963c20e335b891099155d5dcaaa6d3d5d6a64579321dabea782385dStake124993392021-11-09 9:55:0728 days 8 hrs agoRevive Project: DeployerOUT 0xe529beb468777cb96a8a61c220dbcecca43c0dc20 BNB0.001022405
0x8b0df10c70a5c460fdb15e88d9f2e3f077852f2eb2ad28b8bde7c9cffc041306Approve124993312021-11-09 9:54:4328 days 8 hrs agoRevive Project: DeployerOUT 0xf6565a97dc832d93dc83b75ee9aa5c7e8ecb0f9d0 BNB0.000220645
0xe61653c8d531a5791c39438cce3b71dc7f8176c4c141f88289226684c34c6ee4Swap Exact ETH F...124993192021-11-09 9:54:0728 days 8 hrs agoRevive Project: DeployerOUT PancakeSwap: Router v20.1 BNB0.00068518
0x84d55b160b53dff2212e4beaeadf1b5f93cb3b8b8580dc3f2041a590a4fbc78cTransfer124992392021-11-09 9:50:0728 days 8 hrs agoBinance: Hot Wallet 10 IN Revive Project: Deployer0.299275 BNB0.00021
0xe467d3a08a7f3a84e3f084aee9ad977278c8b3a8ddda65f4ac4f03f5a51756b8Transfer113709922021-09-30 17:42:3568 days 32 mins agoRevive Project: DeployerOUT Revive Project: PULSE Token0 BNB0.000867025
0xeb7d842c8246fcd749f74c0e95d3a6b3a67d717a9ceecd70014d75ed439a32e8Transfer Out108510912021-09-12 13:55:1186 days 4 hrs agoRevive Project: DeployerOUT BSC: Token Hub0.19727192 BNB0.00038137
0x85b2d8e2a6e34ee0d8b45b4d34fa4fcb1a407c0c1f7328c764d4bce9d8d61d67Public Sale108506252021-09-12 13:31:5186 days 4 hrs agoRevive Project: DeployerOUT 0xfa8fcb1a54663c2ee528110b95aaeede39c8f7330.33 BNB0.000235565
0x7e1c017e8de20e8e604913583bf2d37293d3ecbb7f42a72612d6058af4bc088bTransfer Ownersh...108503322021-09-12 13:17:1286 days 4 hrs agoRevive Project: DeployerOUT 0xfa8fcb1a54663c2ee528110b95aaeede39c8f7330 BNB0.000156225
0xc9b94941e50d6afc079b44dfb8c009b30955fef625279c8a32f77000beb10280Set Token Price108497292021-09-12 12:47:0386 days 5 hrs agoRevive Project: DeployerOUT 0xfa8fcb1a54663c2ee528110b95aaeede39c8f7330 BNB0.00014622
0x66a729217d673daaafeffeaeb13afd6ce239bcdacb9f7f10b4402ffd5b53a6b0Public Sale108496042021-09-12 12:40:4886 days 5 hrs agoRevive Project: DeployerOUT 0xfa8fcb1a54663c2ee528110b95aaeede39c8f7330.02 BNB0.000385565
0x2a4de5b63f821e88623b8eed1adaeba6a4aead1e283eb878df97a0bc94585df3Init Public Sale108495582021-09-12 12:38:3086 days 5 hrs agoRevive Project: DeployerOUT 0xfa8fcb1a54663c2ee528110b95aaeede39c8f7330 BNB0.000146855
0x7f100a6007a3c2fc7c753154f5bdb4050a4f2ee4b86010ded45d518aa25bff840x60806040108489182021-09-12 12:06:3086 days 6 hrs agoRevive Project: DeployerOUT Contract Creation0 BNB0.010273935
0xa289afe7b038bb1b9a6dc37f0899c807835180b471abf8dd5f6e09bca1730396Transfer108482712021-09-12 11:34:0986 days 6 hrs agoBinance: Hot Wallet 7 IN Revive Project: Deployer0.4995 BNB0.00021
0x2e349870a9fb4d38a7bfb798061a3e763b682d38fbc92815c79a25c448ea9cd7Public Sale105186512021-08-31 22:03:0797 days 20 hrs agoRevive Project: DeployerOUT 0x2789da63fc511162d5c99540fde63230dbca90bf0.1 BNB0.000354665
0x59cfbfc638bada83806612dd2c332a375c6602b2f2102fec29edd3db4e83ced9Transfer Ownersh...105130812021-08-31 17:22:2698 days 52 mins agoRevive Project: DeployerOUT 0x2789da63fc511162d5c99540fde63230dbca90bf0 BNB0.000154805
0x5f7ab54893ad7b4964afc9a189e38b9e6bed36684a9dcb675ea45aa3769a5e37Add Token105127852021-08-31 17:06:2398 days 1 hr agoRevive Project: DeployerOUT 0x2789da63fc511162d5c99540fde63230dbca90bf0 BNB0.000497015
0x18a7d7df0d1d64be42c08556a24c1bd3767cc24f9dff0e27904c3c0707480acfAdd Token105127242021-08-31 17:03:2098 days 1 hr agoRevive Project: DeployerOUT 0x2789da63fc511162d5c99540fde63230dbca90bf0 BNB0.000497015
0xda04bbbae072b8f00a9b822f1af405455868748f85e1c39206c225aae8c73afcAdd Token105127032021-08-31 17:02:1798 days 1 hr agoRevive Project: DeployerOUT 0x2789da63fc511162d5c99540fde63230dbca90bf0 BNB0.000497015
0xd5282f00a997bc72d4414ceac23280bda57cf8257cb1d97728e64f32be5281d8Add Token105126802021-08-31 17:01:0898 days 1 hr agoRevive Project: DeployerOUT 0x2789da63fc511162d5c99540fde63230dbca90bf0 BNB0.000497015
[ Download CSV Export 

OVERVIEW

Deployer address for Revive Project's contract.

Latest 12 internal transactions
Parent Txn Hash Block From To Value
0x66a729217d673daaafeffeaeb13afd6ce239bcdacb9f7f10b4402ffd5b53a6b0108496042021-09-12 12:40:4886 days 5 hrs ago 0xfa8fcb1a54663c2ee528110b95aaeede39c8f733Revive Project: Deployer0.02 BNB
0xb144b4e307355a1b110c312f0035cdd0a39e09d74d482db59c66047b33045210105126932021-08-31 17:01:4798 days 1 hr ago 0x2789da63fc511162d5c99540fde63230dbca90bfRevive Project: Deployer0.0006483 BNB
0xea4587935960c8e1aeb38c218ef1f49ea5b78ba022e947b14eefbbe11b62a050105125902021-08-31 16:56:3898 days 1 hr ago 0x2789da63fc511162d5c99540fde63230dbca90bfRevive Project: Deployer0.0006483 BNB
0xd001251321c069fd075abccc9a8cce64fc0aca37798b3fafe2a7fdbd5986c834105120942021-08-31 16:31:5098 days 1 hr ago 0x2789da63fc511162d5c99540fde63230dbca90bfRevive Project: Deployer0.0006483 BNB
0xd5554762791f443f9216d13edd1b1044eabc58daba437ede511ae826318df61b105120142021-08-31 16:27:5098 days 1 hr ago 0x2789da63fc511162d5c99540fde63230dbca90bfRevive Project: Deployer0.0006483 BNB
0x6e3e0b554a9b7ffa05fdc2c704f233cbe41fd8fbaa87ae7a37f649d09154c3ad105119302021-08-31 16:23:3898 days 1 hr ago 0x2789da63fc511162d5c99540fde63230dbca90bfRevive Project: Deployer0.006483 BNB
0xed869a3eb76310cfa9bdebdf1f9f73f5bfb30744912a111346df73875a042e41105117192021-08-31 16:13:0598 days 2 hrs ago 0x2789da63fc511162d5c99540fde63230dbca90bfRevive Project: Deployer0.01 BNB
0xd6b1c29bfb3b2237f63380172178c855a70b0432b41735cb3eb7775dcb1f74dc105116972021-08-31 16:11:5998 days 2 hrs ago 0x2789da63fc511162d5c99540fde63230dbca90bfRevive Project: Deployer0.0006483 BNB
0x5be59dc2b7133cb343ab805f577de15468054dacbff088ae8e90cc059c5c4e4d104017712021-08-27 19:31:28101 days 22 hrs ago 0x43e8df300be8ae664ffd1a86b5d5ddf2fa2d471eRevive Project: Deployer0.1 BNB
0x67286f37978a529b00c87476d26da41baf6ca029824b7dc1f1bac5c85d1eaf23104017632021-08-27 19:31:04101 days 22 hrs ago 0x43e8df300be8ae664ffd1a86b5d5ddf2fa2d471eRevive Project: Deployer0.001 BNB
0x3635b6818b0ba050595ee3cf6642c3bcc39fd625b5dd7326f79b8b477866c08a103996572021-08-27 17:45:46102 days 29 mins ago 0x43e8df300be8ae664ffd1a86b5d5ddf2fa2d471eRevive Project: Deployer0.01 BNB
0xaea9cc7984f202e2ebaa8c6d4af2dc49e650847e4b5a31cf28b9f14c713f9b08103995242021-08-27 17:38:41102 days 36 mins ago 0x43e8df300be8ae664ffd1a86b5d5ddf2fa2d471eRevive Project: Deployer0.04 BNB
[ Download CSV Export 
Loading

Contract Name:
0 BNB

Compiler Version
0

Optimization Enabled:
0 BNB

Other Settings:
-NA-
Block Transaction Gas Used Reward
Age Block Fee Address BC Fee Address Voting Power Jailed Incoming
Block Uncle Number Difficulty Gas Used Reward
Loading
Loading
Make sure to use the "Vote Down" button for any spammy posts, and the "Vote Up" for interesting conversations.